< < Back
Terminal Aerodrome Forecast


Current Version              Previous Versions:   1  2  3  4  5  6  7  8  9  

Terminal Aerodrome Forecast

995
FTUS42 KGSP 011727
TAFHKY
TAF
KHKY 011727Z 0118/0218 VRB03KT P6SM SCT060
     FM012300 00000KT P6SM BKN050
     FM021000 00000KT 5SM BR SCT080
     FM021300 00000KT P6SM SCT250=

Latest METAR

168
SAUS70 KWBC 012000 RRP
MTRHKY
METAR KHKY 011953Z AUTO 00000KT 10SM CLR 32/15 A3009 RMK AO2 SLP165
T03220150


USA.gov is the U.S. government's official web portal to all federal, state and local government web resources and services.